Stations météo

réclame
Mon MeteoGroup
Nieuw Beerta aws, Pays-Bas (6286): Température de l'air & dewpoint: 14.11.2018 12:00:00 - 20.11.2018 12:00:00 (CET)Nieuw Beerta aws, Pays-Bas (6286): Température de l'air 5cm & Température de l'air -5cm: 14.11.2018 12:00:00 - 20.11.2018 12:00:00 (CET)Nieuw Beerta aws, Pays-Bas (6286): Température de l'air -20cm & Température de l'air -100cm: 14.11.2018 12:00:00 - 20.11.2018 12:00:00 (CET)Nieuw Beerta aws, Pays-Bas (6286): Vitesse du vent & gusts: 14.11.2018 12:00:00 - 20.11.2018 12:00:00 (CET)Nieuw Beerta aws, Pays-Bas (6286): Direction du vent: 14.11.2018 12:00:00 - 20.11.2018 12:00:00 (CET)Nieuw Beerta aws, Pays-Bas (6286): Quantités de précipitations: 14.11.2018 12:00:00 - 20.11.2018 12:00:00 (CET)
Date & Time tt [°C] td [°C] tt 5cm [°C] tt -5cm [°C] tt -20cm [°C] tt -100cm [°C] ff [km/h] ff [knt] fx [km/h] fx [knt] dd rr [mm]
20.11.2018 12:00:00 3,3 -0,6 3,2 4,4 5,5 10,5 36 19 54 29 E 0,0
20.11.2018 11:00:00 3,2 -0,8 3,1 4,3 5,5 10,5 36 19 50 27 E 0,0
20.11.2018 10:00:00 3,2 -1,1 3,0 4,3 5,5 10,5 43 23 61 33 E 0,0
20.11.2018 09:00:00 3,0 -1,2 2,9 4,4 5,5 10,5 36 19 61 33 E 0,0
20.11.2018 08:00:00 3,7 -0,3 3,5 4,4 5,5 10,5 40 21 50 27 E 0,0
20.11.2018 07:00:00 3,9 0,7 3,7 4,4 5,5 10,5 32 18 50 27 E 0,0
20.11.2018 06:00:00 3,8 1,0 3,5 4,4 5,5 10,5 29 16 43 23 ENE 0,0
20.11.2018 05:00:00 3,8 0,9 3,7 4,4 5,6 10,6 32 18 47 25 ENE 0,0
20.11.2018 04:00:00 3,8 0,7 3,4 4,4 5,6 10,6 32 18 43 23 ENE 0,0
20.11.2018 03:00:00 3,5 0,3 3,2 4,4 5,6 10,6 29 16 47 25 ENE 0,0
20.11.2018 02:00:00 3,7 0,2 3,5 4,4 5,7 10,6 29 16 43 23 E 0,0
20.11.2018 01:00:00 3,2 0,3 2,4 4,5 5,7 10,6 25 14 36 19 ENE 0,0
20.11.2018 00:00:00 2,9 0,3 2,4 4,6 5,8 10,6 29 16 43 23 ENE 0,0
19.11.2018 23:00:00 3,5 0,6 2,9 4,7 5,8 10,6 32 18 50 27 ENE 0,0
19.11.2018 22:00:00 4,2 0,8 3,8 4,7 5,9 10,6 32 18 47 25 ENE 0,0
19.11.2018 21:00:00 4,2 1,1 3,8 4,8 5,9 10,6 29 16 40 21 ENE 0,0
19.11.2018 20:00:00 3,4 0,5 2,6 4,9 6,0 10,6 25 14 36 19 ENE 0,0
19.11.2018 19:00:00 3,8 0,9 3,0 5,1 6,0 10,7 25 14 32 18 ENE 0,0
19.11.2018 18:00:00 5,1 1,1 4,6 5,3 6,0 10,7 29 16 40 21 ENE 0,0
19.11.2018 17:00:00 4,8 2,0 4,0 5,4 6,0 10,7 25 14 36 19 NE 0,0
19.11.2018 16:00:00 5,8 2,6 5,4 5,6 5,9 10,7 29 16 43 23 NE 0,0
19.11.2018 15:00:00 6,1 2,6 5,9 5,6 5,9 10,7 29 16 47 25 ENE 0,0
19.11.2018 14:00:00 6,4 3,0 6,5 5,6 5,8 10,7 36 19 47 25 ENE 0,0
19.11.2018 13:00:00 6,5 3,3 6,2 5,5 5,7 10,7 36 19 50 27 ENE 0,0
19.11.2018 12:00:00 6,6 3,7 6,6 5,2 5,7 10,7 36 19 50 27 ENE 0,0
19.11.2018 11:00:00 6,2 4,1 6,2 5,0 5,6 10,7 32 18 43 23 ENE 0,0
19.11.2018 10:00:00 5,2 3,7 4,9 4,9 5,6 10,7 32 18 40 21 NE 0,0
19.11.2018 09:00:00 5,0 3,5 4,8 4,8 5,6 10,7 29 16 43 23 NE 0,0
19.11.2018 08:00:00 5,0 3,4 4,7 4,8 5,6 10,8 29 16 40 21 NE 0,0
19.11.2018 07:00:00 4,6 3,2 4,3 4,8 5,6 10,8 25 14 40 21 NE 0,0
19.11.2018 06:00:00 5,0 3,3 4,7 4,8 5,5 10,8 25 14 36 19 NE 0,0
19.11.2018 05:00:00 5,0 3,5 4,6 4,7 5,5 10,8 25 14 36 19 NE 0,0
19.11.2018 04:00:00 4,7 3,4 4,1 4,7 5,5 10,8 22 12 32 18 NE 0,0
19.11.2018 03:00:00 5,1 3,7 4,9 4,7 5,4 10,8 22 12 36 19 NE 0,0
19.11.2018 02:00:00 4,7 3,8 4,0 4,7 5,4 10,8 18 10 32 18 NE 0,0
19.11.2018 01:00:00 5,3 4,7 4,9 4,6 5,4 10,8 18 10 29 16 NE 0,0
19.11.2018 00:00:00 5,5 4,2 5,1 4,5 5,3 10,8 22 12 29 16 NE 0,0
18.11.2018 23:00:00 5,1 3,8 4,8 4,5 5,3 10,8 18 10 32 18 NE 0,0
18.11.2018 22:00:00 5,5 3,7 5,1 4,4 5,3 10,8 18 10 25 14 ENE 0,0
18.11.2018 21:00:00 5,4 3,9 4,9 4,4 5,2 10,8 14 8 25 14 ENE 0,0
18.11.2018 20:00:00 5,5 4,1 5,2 4,3 5,2 10,9 18 10 29 16 NE 0,0
18.11.2018 19:00:00 5,5 3,7 5,2 4,1 5,2 10,9 18 10 25 14 ENE 0,0
18.11.2018 18:00:00 5,1 3,3 4,3 4,0 5,1 10,9 18 10 25 14 NE 0,0
18.11.2018 17:00:00 3,4 2,4 2,3 4,0 5,1 10,9 14 8 18 10 NNE 0,0
18.11.2018 16:00:00 4,2 1,8 3,5 4,0 5,1 10,9 14 8 18 10 NE 0,0
18.11.2018 15:00:00 5,4 -0,2 4,8 4,0 5,0 10,9 18 10 25 14 NE 0,0
18.11.2018 14:00:00 5,6 -1,2 5,6 3,8 5,0 10,9 14 8 22 12 NE 0,0
18.11.2018 13:00:00 4,3 -1,1 4,3 3,5 5,0 10,9 14 8 22 12 NE 0,0
18.11.2018 12:00:00 3,3 -1,0 3,3 3,1 5,0 10,9 14 8 18 10 NE 0,0
18.11.2018 11:00:00 1,6 -1,5 1,3 3,0 5,1 10,9 14 8 18 10 NE 0,0
18.11.2018 10:00:00 0,3 -2,2 -0,1 3,0 5,2 10,9 14 8 22 12 ENE 0,0
18.11.2018 09:00:00 -1,3 -3,3 -2,5 3,1 5,3 10,9 11 6 14 8 ENE 0,0
18.11.2018 08:00:00 -2,3 -4,1 -2,9 3,2 5,4 10,9 14 8 18 10 NE 0,0
18.11.2018 07:00:00 -2,5 -4,1 -3,2 3,3 5,5 10,9 11 6 14 8 NE 0,0
18.11.2018 06:00:00 -1,8 -3,9 -2,4 3,5 5,6 11,0 14 8 14 8 ENE 0,0
18.11.2018 05:00:00 -1,4 -3,3 -2,1 3,6 5,7 11,0 11 6 18 10 ENE 0,0
18.11.2018 04:00:00 -1,1 -3,0 -1,7 3,7 5,8 11,0 11 6 14 8 NE 0,0
18.11.2018 03:00:00 -0,9 -2,4 -1,5 3,9 5,9 11,0 11 6 22 12 ENE 0,0
18.11.2018 02:00:00 -0,9 -2,2 -1,7 4,0 5,9 11,0 11 6 18 10 ENE 0,0
18.11.2018 01:00:00 0,3 -1,5 -0,2 4,1 6,0 11,0 18 10 25 14 E 0,0
18.11.2018 00:00:00 0,4 -1,2 -0,3 4,3 6,1 11,0 14 8 18 10 E 0,0
17.11.2018 23:00:00 1,0 -0,7 0,3 4,4 6,2 11,0 14 8 18 10 E 0,0
17.11.2018 22:00:00 0,9 -0,8 0,1 4,6 6,3 11,0 14 8 25 14 E 0,0
17.11.2018 21:00:00 1,7 -0,2 0,9 4,8 6,4 11,0 14 8 25 14 E 0,0
17.11.2018 20:00:00 2,5 0,2 1,6 5,0 6,4 11,0 18 10 29 16 E 0,0
17.11.2018 19:00:00 2,6 0,7 2,1 5,1 6,5 11,0 18 10 25 14 ENE 0,0
17.11.2018 18:00:00 2,7 1,0 2,1 5,4 6,5 11,0 18 10 25 14 ENE 0,0
17.11.2018 17:00:00 3,1 1,3 2,4 5,6 6,5 11,0 14 8 25 14 ENE 0,0
17.11.2018 16:00:00 5,6 2,3 5,1 5,8 6,4 11,0 18 10 25 14 E 0,0
17.11.2018 15:00:00 7,2 2,6 6,9 5,8 6,4 11,0 14 8 29 16 E 0,0
17.11.2018 14:00:00 6,9 2,9 7,0 5,6 6,3 11,0 22 12 32 18 E 0,0
17.11.2018 13:00:00 6,5 2,8 6,9 5,3 6,3 11,0 22 12 32 18 ESE 0,0
17.11.2018 12:00:00 5,3 2,3 5,8 4,9 6,3 11,1 22 12 32 18 E 0,0
17.11.2018 11:00:00 4,0 1,9 4,3 4,7 6,3 11,1 25 14 32 18 E 0,0
17.11.2018 10:00:00 2,7 1,3 2,5 4,5 6,4 11,1 22 12 32 18 E 0,0
17.11.2018 09:00:00 1,5 0,6 1,0 4,6 6,5 11,1 22 12 25 14 E 0,0
17.11.2018 08:00:00 1,1 0,1 0,5 4,7 6,6 11,1 18 10 29 16 E 0,0
17.11.2018 07:00:00 0,9 0,1 0,4 4,8 6,7 11,1 18 10 25 14 E 0,0
17.11.2018 06:00:00 1,4 0,4 0,8 4,9 6,8 11,1 18 10 25 14 E 0,0
17.11.2018 05:00:00 1,5 0,7 1,0 5,1 6,8 11,1 18 10 25 14 E 0,0
17.11.2018 04:00:00 2,2 1,3 1,4 5,2 6,9 11,1 22 12 25 14 E 0,0
17.11.2018 03:00:00 1,1 0,3 1,0 5,3 7,0 11,1 14 8 22 12 ENE 0,0
17.11.2018 02:00:00 2,6 1,5 1,7 5,5 7,1 11,1 18 10 22 12 E 0,0
17.11.2018 01:00:00 2,1 1,2 1,3 5,7 7,2 11,1 14 8 22 12 E 0,0
17.11.2018 00:00:00 3,3 1,8 2,4 5,8 7,3 11,1 14 8 22 12 E 0,0
16.11.2018 23:00:00 4,0 2,2 3,3 6,0 7,3 11,1 14 8 29 16 ESE 0,0
16.11.2018 22:00:00 5,2 2,7 4,3 6,1 7,4 11,1 22 12 32 18 ESE 0,0
16.11.2018 21:00:00 5,2 3,2 4,2 6,3 7,5 11,1 18 10 29 16 ESE 0,0
16.11.2018 20:00:00 5,3 3,6 4,4 6,4 7,5 11,1 14 8 22 12 ESE 0,0
16.11.2018 19:00:00 5,2 3,7 4,3 6,6 7,6 11,1 14 8 18 10 E 0,0
16.11.2018 18:00:00 6,3 4,4 5,1 6,8 7,6 11,1 14 8 22 12 ESE 0,0
16.11.2018 17:00:00 4,9 3,8 3,8 7,0 7,6 11,1 11 6 14 8 E 0,0
16.11.2018 16:00:00 7,4 5,4 7,0 7,2 7,5 11,1 11 6 18 10 ENE 0,0
16.11.2018 15:00:00 8,3 5,6 8,2 7,2 7,4 11,1 11 6 14 8 E 0,0
16.11.2018 14:00:00 7,5 5,3 7,9 7,1 7,4 11,1 11 6 14 8 E 0,0
16.11.2018 13:00:00 6,6 5,2 6,7 6,8 7,3 11,2 4 2 11 6 SE 0,0
16.11.2018 12:00:00 3,9 3,9 4,7 6,5 7,3 11,2 7 4 14 8 E 0,0
16.11.2018 11:00:00 1,9 1,8 2,6 6,3 7,3 11,2 11 6 18 10 SE 0,0
16.11.2018 10:00:00 1,1 1,0 1,8 6,1 7,3 11,2 7 4 14 8 ESE 0,0
16.11.2018 09:00:00 0,5 0,4 1,0 6,1 7,4 11,2 7 4 7 4 E 0,0
16.11.2018 08:00:00 0,6 0,4 1,0 6,2 7,4 11,2 7 4 11 6 ESE 0,0
16.11.2018 07:00:00 0,9 0,7 1,3 6,2 7,5 11,2 7 4 11 6 E 0,0
16.11.2018 06:00:00 1,4 1,2 1,8 6,3 7,5 11,2 7 4 18 10 ESE 0,0
16.11.2018 05:00:00 1,9 1,7 2,1 6,4 7,5 11,2 14 8 18 10 SE 0,0
16.11.2018 04:00:00 2,2 2,0 2,4 6,4 7,6 11,2 11 6 14 8 ESE 0,0
16.11.2018 03:00:00 2,2 2,0 2,5 6,5 7,6 11,2 7 4 14 8 ESE 0,0
16.11.2018 02:00:00 2,5 2,4 2,8 6,5 7,6 11,2 11 6 18 10 SE 0,0
16.11.2018 01:00:00 2,9 2,7 3,1 6,6 7,7 11,2 14 8 22 12 SE 0,0
16.11.2018 00:00:00 3,3 3,1 3,4 6,6 7,7 11,2 14 8 22 12 ESE 0,0
15.11.2018 23:00:00 3,4 3,2 3,5 6,7 7,7 11,2 14 8 18 10 ESE 0,0
15.11.2018 22:00:00 3,4 3,2 3,6 6,7 7,8 11,2 11 6 18 10 ESE 0,0
15.11.2018 21:00:00 3,8 3,7 4,0 6,7 7,8 11,2 14 8 18 10 ESE 0,0
15.11.2018 20:00:00 4,4 4,2 4,3 6,8 7,9 11,2 14 8 22 12 ESE 0,0
15.11.2018 19:00:00 4,5 4,3 4,1 6,8 7,9 11,2 14 8 22 12 E 0,0
15.11.2018 18:00:00 5,7 4,0 4,9 7,0 7,9 11,2 14 8 22 12 ESE 0,0
15.11.2018 17:00:00 6,5 4,8 5,1 7,3 7,9 11,2 14 8 18 10 ESE 0,0
15.11.2018 16:00:00 8,6 6,3 7,8 7,5 7,8 11,2 7 4 18 10 ESE 0,0
15.11.2018 15:00:00 10,0 6,1 9,8 7,5 7,7 11,2 14 8 18 10 SE 0,0
15.11.2018 14:00:00 10,0 6,4 10,1 7,3 7,7 11,2 14 8 18 10 SSE 0,0
15.11.2018 13:00:00 9,1 6,3 10,1 6,9 7,6 11,2 11 6 18 10 SE 0,0
15.11.2018 12:00:00 8,2 5,9 9,0 6,4 7,6 11,2 11 6 14 8 SSE 0,0
15.11.2018 11:00:00 6,4 5,3 6,8 6,0 7,7 11,2 11 6 14 8 SSE 0,0
15.11.2018 10:00:00 4,4 3,7 4,1 5,9 7,8 11,2 7 4 11 6 SE 0,0
15.11.2018 09:00:00 2,2 2,1 1,5 5,9 7,9 11,2 7 4 14 8 SSE 0,0
15.11.2018 08:00:00 2,0 1,8 1,1 6,1 8,0 11,2 11 6 14 8 SE 0,0
15.11.2018 07:00:00 1,7 1,5 0,9 6,2 8,1 11,2 14 8 14 8 SSE 0,0
15.11.2018 06:00:00 1,8 1,7 0,9 6,4 8,2 11,2 11 6 14 8 ESE 0,0
15.11.2018 05:00:00 2,8 2,6 1,3 6,6 8,4 11,2 14 8 14 8 SSE 0,0
15.11.2018 04:00:00 2,6 2,4 2,2 6,8 8,5 11,2 14 8 14 8 SSE 0,0
15.11.2018 03:00:00 2,6 2,5 1,7 7,0 8,6 11,2 11 6 14 8 SE 0,0
15.11.2018 02:00:00 3,7 3,6 2,4 7,2 8,7 11,2 7 4 11 6 SSE 0,0
15.11.2018 01:00:00 4,9 4,4 3,0 7,4 8,8 11,2 11 6 14 8 SSE 0,0
15.11.2018 00:00:00 4,4 4,2 3,5 7,7 8,9 11,2 7 4 14 8 SSE 0,0
14.11.2018 23:00:00 5,3 4,8 4,6 7,9 9,0 11,2 11 6 14 8 SSE 0,0
14.11.2018 22:00:00 5,3 4,8 4,5 8,1 9,1 11,2 11 6 14 8 SE 0,0
14.11.2018 21:00:00 6,0 5,3 5,2 8,4 9,1 11,2 11 6 14 8 SSE 0,0
14.11.2018 20:00:00 7,6 6,6 6,8 8,6 9,2 11,2 11 6 18 10 S 0,0
14.11.2018 19:00:00 8,3 7,1 7,3 8,8 9,2 11,2 11 6 18 10 S 0,0
14.11.2018 18:00:00 9,2 7,7 8,4 8,9 9,2 11,2 11 6 14 8 SSE 0,0
14.11.2018 17:00:00 10,0 8,1 9,1 9,1 9,1 11,2 11 6 18 10 S 0,0
14.11.2018 16:00:00 10,7 8,7 10,3 9,2 9,0 11,2 11 6 22 12 S 0,0
14.11.2018 15:00:00 11,5 8,6 11,0 9,2 9,0 11,2 18 10 29 16 S 0,0
14.11.2018 14:00:00 11,7 8,8 11,4 9,1 8,9 11,2 22 12 29 16 SSW 0,0
14.11.2018 13:00:00 11,2 9,1 11,6 8,8 8,8 11,2 18 10 25 14 S 0,0
14.11.2018 12:00:00 10,3 8,5 10,9 8,4 8,8 11,2 18 10 25 14 S 0,0

tt = Température de l'air
td = dewpoint
tt 5cm = Température de l'air 5cm
tt -5cm = Température de l'air -5cm
tt -20cm = Température de l'air -20cm
tt -100cm = Température de l'air -100cm
ff = Vitesse du vent
fx = gusts
dd = Direction du vent
rr = Quantités de précipitations

stations d'obs. à proximité